createdAt,value
2019-01-05T00:00:14.299Z,20.40
2019-01-05T00:00:49.696Z,17.00
2019-01-05T00:01:25.339Z,19.60
2019-01-05T00:02:00.491Z,18.60
2019-01-05T00:02:35.797Z,16.90
2019-01-05T00:03:11.135Z,17.30
2019-01-05T00:03:46.556Z,16.30
2019-01-05T00:04:21.783Z,17.10
2019-01-05T00:04:57.176Z,19.30
2019-01-05T00:05:32.635Z,19.40
2019-01-05T00:06:08.074Z,18.80
2019-01-05T00:06:43.597Z,18.80
2019-01-05T00:07:19.139Z,15.30
2019-01-05T00:07:54.470Z,22.90
2019-01-05T00:08:29.793Z,20.80
2019-01-05T00:09:05.404Z,19.70
2019-01-05T00:09:40.737Z,24.80
2019-01-05T00:10:16.084Z,23.60
2019-01-05T00:10:51.223Z,17.40
2019-01-05T00:11:26.505Z,18.70
2019-01-05T00:12:01.699Z,23.80
2019-01-05T00:12:37.101Z,27.60
2019-01-05T00:13:12.440Z,22.50
2019-01-05T00:13:47.831Z,20.80
2019-01-05T00:14:23.265Z,23.00
2019-01-05T00:14:58.750Z,20.40
2019-01-05T00:15:34.165Z,19.10
2019-01-05T00:16:09.594Z,18.30
2019-01-05T00:16:44.909Z,20.80
2019-01-05T00:17:20.249Z,26.20
2019-01-05T00:17:55.864Z,23.90
2019-01-05T00:18:31.093Z,19.40
2019-01-05T00:19:06.634Z,20.10
2019-01-05T00:19:42.356Z,18.70
2019-01-05T00:20:17.712Z,22.40
2019-01-05T00:20:53.044Z,25.20
2019-01-05T00:21:28.521Z,23.40
2019-01-05T00:22:04.023Z,24.50
2019-01-05T00:22:39.350Z,21.00
2019-01-05T00:23:14.882Z,20.00
2019-01-05T00:23:50.526Z,20.40
2019-01-05T00:24:25.831Z,18.80
2019-01-05T00:25:02.582Z,23.70
2019-01-05T00:25:37.835Z,21.50
2019-01-05T00:26:12.975Z,19.60
2019-01-05T00:26:48.577Z,20.50
2019-01-05T00:27:24.014Z,21.80
2019-01-05T00:27:59.443Z,22.10
2019-01-05T00:28:34.859Z,20.20
2019-01-05T00:29:10.311Z,21.00
2019-01-05T00:29:45.608Z,22.60
2019-01-05T00:30:21.058Z,21.00
2019-01-05T00:30:56.268Z,18.90
2019-01-05T00:31:31.694Z,18.10
2019-01-05T00:32:07.009Z,19.50
2019-01-05T00:32:42.346Z,18.70
2019-01-05T00:33:17.743Z,16.80
2019-01-05T00:33:52.974Z,19.40
2019-01-05T00:34:28.202Z,22.60
2019-01-05T00:35:03.428Z,15.80
2019-01-05T00:35:38.963Z,15.70
2019-01-05T00:36:14.276Z,15.90
2019-01-05T00:36:49.502Z,19.20
2019-01-05T00:37:24.789Z,20.10
2019-01-05T00:38:00.230Z,16.20
2019-01-05T00:38:35.333Z,16.60
2019-01-05T00:39:10.757Z,16.60
2019-01-05T00:39:46.274Z,15.90
2019-01-05T00:40:21.759Z,18.90
2019-01-05T00:40:57.086Z,19.30
2019-01-05T00:41:32.432Z,19.60
2019-01-05T00:42:07.962Z,17.20
2019-01-05T00:42:43.167Z,16.20
2019-01-05T00:43:18.607Z,15.50
2019-01-05T00:43:54.027Z,13.50
2019-01-05T00:44:29.564Z,14.80
2019-01-05T00:45:04.896Z,16.20
2019-01-05T00:45:40.221Z,14.10
2019-01-05T00:46:15.629Z,17.20
2019-01-05T00:46:51.174Z,17.90
2019-01-05T00:47:26.577Z,18.80
2019-01-05T00:48:02.202Z,21.60
2019-01-05T00:48:37.542Z,18.30
2019-01-05T00:49:13.140Z,18.80
2019-01-05T00:49:48.578Z,14.50
2019-01-05T00:50:23.802Z,12.10
2019-01-05T00:50:59.309Z,14.40
2019-01-05T00:51:34.436Z,16.40
2019-01-05T00:52:09.957Z,16.30
2019-01-05T00:52:45.171Z,15.00
2019-01-05T00:53:20.401Z,14.70
2019-01-05T00:53:55.789Z,13.70
2019-01-05T00:54:31.040Z,11.60
2019-01-05T00:55:06.682Z,14.70
2019-01-05T00:55:42.193Z,14.00
2019-01-05T00:56:17.559Z,18.00
2019-01-05T00:56:53.087Z,20.40
2019-01-05T00:57:28.328Z,17.90
2019-01-05T00:58:03.734Z,14.20
2019-01-05T00:58:38.963Z,13.20
2019-01-05T00:59:14.259Z,15.30
2019-01-05T00:59:49.785Z,15.10
2019-01-05T01:00:25.131Z,16.20
2019-01-05T01:01:00.456Z,16.70
2019-01-05T01:01:36.004Z,17.70
2019-01-05T01:02:11.281Z,13.30
2019-01-05T01:02:46.727Z,12.70
2019-01-05T01:03:22.343Z,13.20
2019-01-05T01:03:57.865Z,12.60
2019-01-05T01:04:33.179Z,12.50
2019-01-05T01:05:08.533Z,15.10
2019-01-05T01:05:43.841Z,17.80
2019-01-05T01:06:19.370Z,16.70
2019-01-05T01:06:54.790Z,14.70
2019-01-05T01:07:30.027Z,13.50
2019-01-05T01:08:05.691Z,11.60
2019-01-05T01:08:41.094Z,11.50
2019-01-05T01:09:16.220Z,13.00
2019-01-05T01:09:51.429Z,14.80
2019-01-05T01:10:26.887Z,14.30
2019-01-05T01:11:02.277Z,10.40
2019-01-05T01:11:37.714Z,11.60
2019-01-05T01:12:13.320Z,12.40
2019-01-05T01:12:48.549Z,14.30
2019-01-05T01:13:23.944Z,13.60
2019-01-05T01:13:59.470Z,15.70
2019-01-05T01:14:34.922Z,11.30
2019-01-05T01:15:10.356Z,11.40
2019-01-05T01:15:45.676Z,11.80
2019-01-05T01:16:20.699Z,10.50
2019-01-05T01:16:55.908Z,12.40
2019-01-05T01:17:31.011Z,14.80
2019-01-05T01:18:06.742Z,11.80
2019-01-05T01:18:42.078Z,10.20
2019-01-05T01:19:17.520Z,10.90
2019-01-05T01:19:53.202Z,12.30
2019-01-05T01:20:28.607Z,11.50
2019-01-05T01:21:03.724Z,9.70
2019-01-05T01:21:39.344Z,11.00
2019-01-05T01:22:14.687Z,10.20
2019-01-05T01:22:49.688Z,11.10
2019-01-05T01:23:24.815Z,11.60
2019-01-05T01:24:00.527Z,11.20
2019-01-05T01:24:35.959Z,10.10
2019-01-05T01:25:10.903Z,8.80
2019-01-05T01:25:46.342Z,11.90
2019-01-05T01:26:21.876Z,13.40
2019-01-05T01:26:57.112Z,11.90
2019-01-05T01:27:32.448Z,14.10
2019-01-05T01:28:07.984Z,16.90
2019-01-05T01:28:43.345Z,13.00
2019-01-05T01:29:18.438Z,9.90
2019-01-05T01:29:53.877Z,11.30
2019-01-05T01:30:29.335Z,14.10
2019-01-05T01:31:04.752Z,12.10
2019-01-05T01:31:39.965Z,12.30
2019-01-05T01:32:15.498Z,10.00
2019-01-05T01:32:50.608Z,10.20
2019-01-05T01:33:26.164Z,8.90
2019-01-05T01:34:01.465Z,10.10
2019-01-05T01:34:36.592Z,12.70
2019-01-05T01:35:32.191Z,9.00
2019-01-05T01:36:07.408Z,11.90
2019-01-05T01:36:43.044Z,11.00
2019-01-05T01:37:18.371Z,15.20
2019-01-05T01:37:53.819Z,10.10
2019-01-05T01:38:29.195Z,9.30
2019-01-05T01:39:04.533Z,10.80
2019-01-05T01:39:39.955Z,9.20
2019-01-05T01:40:15.291Z,9.00
2019-01-05T01:40:50.825Z,8.50
2019-01-05T01:41:26.119Z,10.20
2019-01-05T01:42:01.415Z,12.10
2019-01-05T01:42:36.620Z,12.80
2019-01-05T01:43:12.056Z,8.70
2019-01-05T01:43:47.263Z,9.40
2019-01-05T01:44:22.781Z,11.20
2019-01-05T01:44:58.128Z,10.10
2019-01-05T01:45:33.582Z,9.60
2019-01-05T01:46:09.151Z,9.50
2019-01-05T01:46:44.696Z,7.40
2019-01-05T01:47:20.266Z,8.90
2019-01-05T01:47:55.903Z,8.00
2019-01-05T01:48:31.171Z,8.70
2019-01-05T01:49:06.579Z,11.20
2019-01-05T01:49:42.003Z,8.10
2019-01-05T01:50:17.548Z,9.20
2019-01-05T01:50:52.993Z,10.20
2019-01-05T01:51:28.255Z,10.50
2019-01-05T01:52:03.440Z,10.60
2019-01-05T01:52:38.674Z,10.40
2019-01-05T01:53:13.969Z,8.90
2019-01-05T01:53:49.408Z,8.40
2019-01-05T01:54:24.700Z,8.70
2019-01-05T01:55:00.182Z,10.90
2019-01-05T01:55:35.568Z,10.30
2019-01-05T01:56:10.787Z,10.30
2019-01-05T01:56:46.300Z,8.90
2019-01-05T01:57:21.721Z,9.50
2019-01-05T01:57:56.975Z,7.80
2019-01-05T01:58:32.286Z,6.00
2019-01-05T01:59:08.008Z,7.90
2019-01-05T01:59:43.616Z,6.40
2019-01-05T02:00:19.286Z,7.80
2019-01-05T02:00:54.777Z,9.00
2019-01-05T02:01:30.199Z,10.30
2019-01-05T02:02:05.611Z,9.70
2019-01-05T02:02:41.150Z,8.20
2019-01-05T02:03:16.568Z,8.50
2019-01-05T02:03:52.085Z,8.70
2019-01-05T02:04:27.408Z,8.00
2019-01-05T02:05:02.831Z,7.70
2019-01-05T02:05:37.954Z,8.50
2019-01-05T02:06:13.374Z,9.30
2019-01-05T02:06:48.827Z,10.30
2019-01-05T02:07:24.020Z,8.50
2019-01-05T02:07:59.457Z,6.80
2019-01-05T02:08:34.582Z,7.60
2019-01-05T02:09:10.023Z,10.00
2019-01-05T02:09:45.327Z,8.40
2019-01-05T02:10:20.990Z,8.70
2019-01-05T02:10:56.104Z,7.20
2019-01-05T02:11:31.331Z,8.00
2019-01-05T02:12:07.002Z,10.50
2019-01-05T02:12:42.496Z,10.40
2019-01-05T02:13:18.237Z,8.30
2019-01-05T02:13:53.641Z,8.20
2019-01-05T02:14:29.085Z,8.60
2019-01-05T02:15:04.825Z,9.50
2019-01-05T02:15:40.084Z,13.10
2019-01-05T02:16:15.194Z,10.00
2019-01-05T02:16:50.526Z,8.10
2019-01-05T02:17:25.736Z,8.40
2019-01-05T02:18:01.285Z,10.30
2019-01-05T02:18:36.732Z,11.20
2019-01-05T02:19:12.037Z,11.20
2019-01-05T02:19:47.363Z,11.20
2019-01-05T02:20:22.913Z,9.90
2019-01-05T02:20:58.263Z,11.20
2019-01-05T02:21:33.381Z,9.50
2019-01-05T02:22:08.715Z,8.70
2019-01-05T02:22:44.018Z,11.50
2019-01-05T02:23:19.462Z,8.90
2019-01-05T02:23:54.674Z,8.00
2019-01-05T02:24:30.219Z,11.70
2019-01-05T02:25:05.585Z,10.80
2019-01-05T02:25:40.985Z,10.10
2019-01-05T02:26:16.515Z,11.30
2019-01-05T02:26:51.889Z,10.10
2019-01-05T02:27:27.234Z,14.80
2019-01-05T02:28:02.739Z,12.70
2019-01-05T02:28:38.090Z,11.60
2019-01-05T02:29:13.398Z,8.80
2019-01-05T02:29:48.825Z,7.70
2019-01-05T02:30:24.046Z,9.20
2019-01-05T02:30:59.286Z,9.90
2019-01-05T02:31:34.833Z,8.70
2019-01-05T02:32:10.254Z,7.60
2019-01-05T02:32:45.786Z,8.80
2019-01-05T02:33:21.090Z,9.60
2019-01-05T02:33:56.217Z,9.40
2019-01-05T02:34:31.534Z,10.20
2019-01-05T02:35:07.083Z,9.50
2019-01-05T02:35:42.201Z,9.30
2019-01-05T02:36:17.424Z,9.50
2019-01-05T02:36:52.649Z,9.30
2019-01-05T02:37:27.954Z,10.20
2019-01-05T02:38:03.404Z,8.80
2019-01-05T02:38:39.203Z,9.70
2019-01-05T02:39:14.532Z,9.10
2019-01-05T02:39:50.144Z,7.90
2019-01-05T02:40:25.411Z,11.80
2019-01-05T02:41:00.600Z,13.70
2019-01-05T02:41:35.830Z,11.70
2019-01-05T02:42:13.037Z,10.50
2019-01-05T02:42:48.567Z,11.60
2019-01-05T02:43:23.975Z,11.70
2019-01-05T02:43:59.308Z,10.10
2019-01-05T02:44:34.637Z,9.20
2019-01-05T02:45:10.086Z,9.10
2019-01-05T02:45:45.419Z,8.50
2019-01-05T02:46:20.634Z,11.20
2019-01-05T02:46:56.467Z,10.70
2019-01-05T02:47:31.775Z,12.50
2019-01-05T02:48:07.327Z,10.10
2019-01-05T02:48:42.641Z,8.20
2019-01-05T02:49:17.988Z,8.30
2019-01-05T02:49:53.496Z,8.80
2019-01-05T02:50:28.966Z,10.10
2019-01-05T02:51:04.351Z,11.10
2019-01-05T02:51:39.790Z,11.20
2019-01-05T02:52:15.019Z,11.30
2019-01-05T02:52:50.429Z,11.00
2019-01-05T02:53:25.756Z,11.50
2019-01-05T02:54:01.060Z,9.30
2019-01-05T02:54:36.505Z,10.40
2019-01-05T02:55:11.776Z,9.70
2019-01-05T02:55:46.985Z,8.30
2019-01-05T02:56:22.437Z,8.90
2019-01-05T02:56:57.654Z,8.40
2019-01-05T02:57:32.791Z,9.20
2019-01-05T02:58:08.033Z,9.70
2019-01-05T02:58:43.245Z,9.00
2019-01-05T02:59:18.485Z,9.70
2019-01-05T02:59:53.587Z,7.90
2019-01-05T03:00:28.959Z,7.50
2019-01-05T03:01:04.313Z,9.00
2019-01-05T03:01:39.647Z,11.60
2019-01-05T03:02:14.876Z,13.70
2019-01-05T03:02:50.422Z,9.20
2019-01-05T03:03:25.957Z,10.00
2019-01-05T03:04:01.536Z,9.80
2019-01-05T03:04:36.867Z,9.30
2019-01-05T03:05:12.419Z,7.50
2019-01-05T03:05:48.458Z,8.60
2019-01-05T03:06:23.820Z,8.60
2019-01-05T03:06:59.223Z,6.20
2019-01-05T03:07:34.552Z,6.70
2019-01-05T03:08:09.670Z,9.00
2019-01-05T03:08:44.774Z,11.30
2019-01-05T03:09:20.109Z,10.30
2019-01-05T03:09:55.499Z,8.00
2019-01-05T03:10:31.361Z,9.80
2019-01-05T03:11:06.927Z,11.30
2019-01-05T03:11:42.338Z,8.70
2019-01-05T03:12:17.573Z,8.20
2019-01-05T03:12:52.869Z,8.00
2019-01-05T03:13:28.116Z,8.80
2019-01-05T03:14:03.637Z,10.40
2019-01-05T03:14:38.842Z,9.10
2019-01-05T03:15:14.182Z,9.90
2019-01-05T03:15:49.683Z,8.80
2019-01-05T03:16:25.042Z,10.70
2019-01-05T03:17:00.443Z,9.70
2019-01-05T03:17:35.890Z,8.90
2019-01-05T03:18:11.441Z,11.40
2019-01-05T03:18:46.654Z,8.50
2019-01-05T03:19:22.225Z,7.70
2019-01-05T03:19:57.698Z,6.30
2019-01-05T03:20:33.358Z,7.10
2019-01-05T03:21:08.589Z,7.70
2019-01-05T03:21:43.931Z,8.80
2019-01-05T03:22:19.364Z,10.30
2019-01-05T03:22:54.867Z,8.90
2019-01-05T03:23:30.317Z,8.30
2019-01-05T03:24:05.540Z,8.40
2019-01-05T03:24:40.856Z,7.40
2019-01-05T03:25:16.277Z,10.40
2019-01-05T03:25:51.528Z,11.70
2019-01-05T03:26:26.755Z,10.20
2019-01-05T03:27:02.183Z,8.80
2019-01-05T03:27:37.810Z,7.60
2019-01-05T03:28:13.251Z,9.50
2019-01-05T03:28:48.568Z,11.50
2019-01-05T03:29:23.795Z,10.50
2019-01-05T03:29:59.310Z,9.40
2019-01-05T03:30:34.663Z,8.50
2019-01-05T03:31:10.093Z,9.50
2019-01-05T03:31:45.296Z,9.20
2019-01-05T03:32:20.751Z,8.10
2019-01-05T03:32:56.052Z,10.10
2019-01-05T03:33:31.584Z,10.30
2019-01-05T03:34:07.105Z,10.00
2019-01-05T03:34:42.902Z,8.20
2019-01-05T03:35:18.132Z,8.60
2019-01-05T03:35:53.536Z,8.60
2019-01-05T03:36:28.714Z,9.70
2019-01-05T03:37:04.184Z,7.50
2019-01-05T03:37:39.418Z,8.40
2019-01-05T03:38:14.856Z,9.10
2019-01-05T03:38:50.283Z,8.90
2019-01-05T03:39:25.442Z,8.10
2019-01-05T03:40:01.254Z,9.20
2019-01-05T03:40:36.701Z,10.60
2019-01-05T03:41:12.118Z,10.70
2019-01-05T03:41:47.366Z,9.20
2019-01-05T03:42:22.608Z,7.60
2019-01-05T03:42:57.861Z,6.80
2019-01-05T03:43:33.319Z,9.30
2019-01-05T03:44:08.844Z,10.40
2019-01-05T03:44:44.298Z,9.30
2019-01-05T03:45:19.729Z,8.90
2019-01-05T03:45:55.046Z,9.60
2019-01-05T03:46:30.762Z,9.60
2019-01-05T03:47:06.171Z,12.80
2019-01-05T03:47:41.696Z,11.40
2019-01-05T03:48:17.269Z,9.70
2019-01-05T03:48:52.585Z,8.70
2019-01-05T03:49:27.828Z,10.10
2019-01-05T03:50:04.250Z,10.80
2019-01-05T03:50:38.345Z,8.50
2019-01-05T03:51:13.830Z,8.10
2019-01-05T03:51:49.357Z,9.70
2019-01-05T03:52:24.880Z,8.80
2019-01-05T03:53:00.282Z,10.60
2019-01-05T03:53:35.766Z,10.70
2019-01-05T03:54:10.882Z,10.20
2019-01-05T03:54:46.200Z,8.70
2019-01-05T03:55:21.539Z,9.40
2019-01-05T03:55:56.860Z,9.70
2019-01-05T03:56:32.416Z,11.20
2019-01-05T03:57:07.532Z,9.80
2019-01-05T03:57:43.158Z,7.70
2019-01-05T03:58:18.482Z,6.60
2019-01-05T03:58:53.838Z,8.50
2019-01-05T03:59:29.497Z,9.90
2019-01-05T04:00:04.706Z,10.50
2019-01-05T04:00:40.042Z,10.00
2019-01-05T04:01:15.375Z,9.80
2019-01-05T04:01:50.712Z,12.50
2019-01-05T04:02:26.275Z,9.40
2019-01-05T04:03:01.667Z,10.30
2019-01-05T04:03:36.807Z,10.70
2019-01-05T04:04:12.033Z,11.30
2019-01-05T04:04:47.270Z,14.70
2019-01-05T04:05:22.608Z,16.60
2019-01-05T04:05:58.215Z,12.00
2019-01-05T04:06:33.567Z,10.00
2019-01-05T04:07:08.769Z,8.80
2019-01-05T04:07:43.926Z,7.80
2019-01-05T04:08:19.263Z,7.10
2019-01-05T04:08:54.576Z,5.40
2019-01-05T04:09:29.980Z,7.40
2019-01-05T04:10:05.581Z,10.00
2019-01-05T04:10:40.909Z,7.00
2019-01-05T04:11:16.244Z,6.00
2019-01-05T04:11:51.661Z,6.20
2019-01-05T04:12:27.386Z,6.50
2019-01-05T04:13:02.720Z,6.90
2019-01-05T04:13:38.051Z,10.20
2019-01-05T04:14:13.572Z,10.60
2019-01-05T04:14:48.929Z,9.20
2019-01-05T04:15:24.282Z,8.00
2019-01-05T04:15:59.729Z,7.10
2019-01-05T04:16:34.918Z,6.70
2019-01-05T04:17:09.918Z,7.10
2019-01-05T04:17:45.340Z,10.00
2019-01-05T04:18:20.681Z,9.20
2019-01-05T04:18:55.981Z,8.70
2019-01-05T04:19:31.410Z,11.50
2019-01-05T04:20:07.065Z,9.30
2019-01-05T04:20:42.498Z,12.00
2019-01-05T04:21:17.939Z,10.10
2019-01-05T04:21:53.148Z,9.20
2019-01-05T04:22:28.386Z,8.50
2019-01-05T04:23:03.699Z,11.90
2019-01-05T04:23:39.038Z,11.10
2019-01-05T04:24:14.171Z,11.70
2019-01-05T04:24:49.376Z,9.60
2019-01-05T04:25:25.034Z,7.40
2019-01-05T04:26:00.349Z,11.10
2019-01-05T04:26:35.987Z,11.10
2019-01-05T04:27:11.392Z,10.60
2019-01-05T04:27:46.617Z,9.00
2019-01-05T04:28:21.844Z,7.80
2019-01-05T04:28:57.049Z,12.40
2019-01-05T04:29:32.487Z,13.10
2019-01-05T04:30:08.082Z,6.90
2019-01-05T04:30:43.767Z,9.00
2019-01-05T04:31:18.902Z,10.50
2019-01-05T04:31:54.428Z,11.20
2019-01-05T04:32:29.892Z,10.50
2019-01-05T04:33:05.185Z,8.80
2019-01-05T04:33:40.630Z,6.20
2019-01-05T04:34:16.075Z,6.30
2019-01-05T04:34:51.199Z,8.80
2019-01-05T04:35:26.631Z,11.90
2019-01-05T04:36:02.246Z,10.50
2019-01-05T04:36:37.589Z,11.00
2019-01-05T04:37:13.124Z,9.30
2019-01-05T04:37:48.484Z,7.40
2019-01-05T04:38:24.000Z,5.70
2019-01-05T04:38:59.294Z,8.50
2019-01-05T04:39:34.707Z,8.90
2019-01-05T04:40:10.208Z,8.00
2019-01-05T04:40:45.840Z,8.10
2019-01-05T04:41:21.410Z,11.00
2019-01-05T04:41:56.622Z,10.30
2019-01-05T04:42:32.070Z,8.30
2019-01-05T04:43:07.375Z,6.10
2019-01-05T04:43:42.396Z,9.50
2019-01-05T04:44:17.964Z,11.40
2019-01-05T04:44:53.269Z,10.30
2019-01-05T04:45:29.205Z,9.30
2019-01-05T04:46:04.401Z,6.20
2019-01-05T04:46:39.750Z,8.30
2019-01-05T04:47:15.188Z,8.70
2019-01-05T04:47:50.596Z,11.40
2019-01-05T04:48:25.925Z,9.00
2019-01-05T04:49:01.424Z,8.80
2019-01-05T04:49:36.954Z,12.00
2019-01-05T04:50:12.071Z,8.20
2019-01-05T04:50:47.427Z,11.80
2019-01-05T04:51:22.766Z,13.20
2019-01-05T04:51:57.914Z,7.40
2019-01-05T04:52:33.244Z,6.80
2019-01-05T04:53:08.569Z,8.20
2019-01-05T04:53:43.904Z,8.50
2019-01-05T04:54:19.043Z,11.70
2019-01-05T04:54:54.445Z,8.60
2019-01-05T04:55:30.368Z,8.90
2019-01-05T04:56:05.878Z,8.60
2019-01-05T04:56:41.321Z,6.90
2019-01-05T04:57:16.909Z,8.40
2019-01-05T04:57:52.219Z,9.70
2019-01-05T04:58:27.446Z,8.00
2019-01-05T04:59:02.749Z,9.60
2019-01-05T04:59:38.181Z,13.80
2019-01-05T05:00:13.388Z,13.00
2019-01-05T05:00:48.621Z,10.70
2019-01-05T05:01:24.398Z,11.00
2019-01-05T05:01:59.396Z,12.80
2019-01-05T05:02:34.753Z,7.80
2019-01-05T05:03:10.252Z,5.70
2019-01-05T05:03:45.410Z,8.40
2019-01-05T05:04:20.751Z,11.30
2019-01-05T05:04:56.256Z,8.20
2019-01-05T05:05:31.677Z,7.60
2019-01-05T05:06:07.007Z,7.80
2019-01-05T05:06:42.248Z,10.40
2019-01-05T05:07:17.474Z,10.80
2019-01-05T05:07:52.839Z,9.70
2019-01-05T05:08:28.204Z,7.50
2019-01-05T05:09:03.574Z,5.40
2019-01-05T05:09:39.133Z,7.50
2019-01-05T05:10:14.652Z,8.60
2019-01-05T05:10:49.954Z,7.90
2019-01-05T05:11:25.602Z,12.00
2019-01-05T05:12:01.134Z,11.90
2019-01-05T05:12:36.485Z,8.00
2019-01-05T05:13:11.913Z,9.80
2019-01-05T05:13:47.347Z,9.50
2019-01-05T05:14:22.677Z,9.20
2019-01-05T05:14:58.074Z,8.40
2019-01-05T05:15:33.395Z,10.60
2019-01-05T05:16:08.510Z,10.20
2019-01-05T05:16:43.956Z,8.80
2019-01-05T05:17:19.183Z,8.70
2019-01-05T05:17:54.383Z,9.70
2019-01-05T05:18:29.739Z,14.40
2019-01-05T05:19:05.177Z,9.80
2019-01-05T05:19:40.612Z,11.60
2019-01-05T05:20:16.309Z,11.20
2019-01-05T05:20:51.722Z,8.30
2019-01-05T05:21:27.276Z,4.90
2019-01-05T05:22:02.687Z,10.30
2019-01-05T05:22:38.226Z,12.70
2019-01-05T05:23:13.783Z,7.60
2019-01-05T05:23:49.011Z,9.80
2019-01-05T05:24:24.448Z,11.10
2019-01-05T05:24:59.789Z,9.60
2019-01-05T05:25:35.005Z,9.30
2019-01-05T05:26:10.242Z,8.10
2019-01-05T05:26:45.591Z,9.10
2019-01-05T05:27:21.287Z,10.50
2019-01-05T05:27:56.601Z,7.60
2019-01-05T05:28:32.014Z,9.80
2019-01-05T05:29:07.446Z,10.20
2019-01-05T05:29:42.577Z,10.60
2019-01-05T05:30:18.001Z,10.70
2019-01-05T05:30:53.431Z,9.90
2019-01-05T05:31:28.660Z,8.90
2019-01-05T05:32:04.064Z,8.40
2019-01-05T05:32:39.404Z,10.50
2019-01-05T05:33:14.639Z,8.50
2019-01-05T05:33:49.891Z,5.30
2019-01-05T05:34:25.132Z,6.60
2019-01-05T05:35:00.337Z,6.00
2019-01-05T05:35:35.793Z,10.10
2019-01-05T05:36:11.277Z,10.40
2019-01-05T05:36:46.814Z,6.10
2019-01-05T05:37:22.316Z,8.30
2019-01-05T05:37:57.681Z,9.20
2019-01-05T05:38:33.025Z,8.90
2019-01-05T05:39:08.524Z,6.70
2019-01-05T05:39:43.670Z,12.00
2019-01-05T05:40:18.875Z,11.30
2019-01-05T05:40:54.206Z,9.30
2019-01-05T05:41:29.541Z,11.40
2019-01-05T05:42:04.764Z,7.30
2019-01-05T05:42:40.108Z,5.70
2019-01-05T05:43:15.530Z,6.20
2019-01-05T05:43:50.780Z,5.80
2019-01-05T05:44:26.201Z,6.80
2019-01-05T05:45:01.761Z,6.60
2019-01-05T05:45:37.159Z,11.80
2019-01-05T05:46:12.145Z,11.70
2019-01-05T05:46:47.539Z,7.30
2019-01-05T05:47:22.795Z,9.10
2019-01-05T05:47:58.542Z,10.00
2019-01-05T05:48:33.893Z,8.70
2019-01-05T05:49:09.307Z,8.30
2019-01-05T05:49:44.808Z,12.30
2019-01-05T05:50:20.328Z,7.40
2019-01-05T05:50:55.646Z,6.30
2019-01-05T05:51:31.053Z,10.30
2019-01-05T05:52:06.380Z,5.60
2019-01-05T05:52:41.702Z,6.10
2019-01-05T05:53:17.232Z,8.70
2019-01-05T05:53:52.754Z,7.30
2019-01-05T05:54:28.270Z,8.60
2019-01-05T05:55:03.924Z,7.70
2019-01-05T05:55:39.598Z,7.60
2019-01-05T05:56:14.976Z,9.40
2019-01-05T05:56:50.639Z,6.80
2019-01-05T05:57:26.065Z,3.60
2019-01-05T05:58:01.665Z,5.50
2019-01-05T05:58:37.435Z,8.10
